sensor_id;sensor_type;location;lat;lon;timestamp;pressure;altitude;pressure_sealevel;temperature;humidity
71457;BME280;59263;48.160;11.752;2023-05-10T01:08:26;95282.25;;;13.30;100.00
71457;BME280;59263;48.160;11.752;2023-05-10T01:10:52;95292.50;;;13.32;100.00
71457;BME280;59263;48.160;11.752;2023-05-10T01:13:27;95290.84;;;13.31;100.00
71457;BME280;59263;48.160;11.752;2023-05-10T01:15:55;95297.81;;;13.39;100.00
71457;BME280;59263;48.160;11.752;2023-05-10T01:18:21;95289.72;;;13.34;100.00
71457;BME280;59263;48.160;11.752;2023-05-10T01:20:48;95270.28;;;13.21;100.00
71457;BME280;59263;48.160;11.752;2023-05-10T01:23:32;95273.53;;;13.23;100.00
71457;BME280;59263;48.160;11.752;2023-05-10T01:28:58;95296.53;;;13.35;100.00
71457;BME280;59263;48.160;11.752;2023-05-10T01:34:23;95273.22;;;13.18;100.00
71457;BME280;59263;48.160;11.752;2023-05-10T01:37:04;95300.09;;;13.34;100.00
71457;BME280;59263;48.160;11.752;2023-05-10T01:39:47;95290.44;;;13.27;100.00
71457;BME280;59263;48.160;11.752;2023-05-10T01:42:17;95295.25;;;13.30;100.00
71457;BME280;59263;48.160;11.752;2023-05-10T01:45:19;95287.66;;;13.29;100.00
71457;BME280;59263;48.160;11.752;2023-05-10T01:47:50;95282.63;;;13.19;100.00
71457;BME280;59263;48.160;11.752;2023-05-10T01:50:22;95249.91;;;13.10;100.00
71457;BME280;59263;48.160;11.752;2023-05-10T01:52:55;95295.25;;;13.30;100.00
71457;BME280;59263;48.160;11.752;2023-05-10T01:55:25;95287.97;;;13.26;100.00
71457;BME280;59263;48.160;11.752;2023-05-10T01:58:00;95263.56;;;13.04;100.00
71457;BME280;59263;48.160;11.752;2023-05-10T02:00:27;95302.75;;;13.25;100.00
71457;BME280;59263;48.160;11.752;2023-05-10T02:02:54;95272.47;;;13.10;100.00
71457;BME280;59263;48.160;11.752;2023-05-10T02:05:21;95271.31;;;13.12;100.00
71457;BME280;59263;48.160;11.752;2023-05-10T02:07:47;95288.88;;;13.10;100.00
71457;BME280;59263;48.160;11.752;2023-05-10T02:10:15;95289.22;;;13.07;100.00
71457;BME280;59263;48.160;11.752;2023-05-10T02:12:43;95294.34;;;13.15;100.00
71457;BME280;59263;48.160;11.752;2023-05-10T02:15:10;95288.56;;;13.05;100.00
71457;BME280;59263;48.160;11.752;2023-05-10T02:17:37;95283.06;;;13.00;100.00
71457;BME280;59263;48.160;11.752;2023-05-10T02:20:04;95284.34;;;13.04;100.00
71457;BME280;59263;48.160;11.752;2023-05-10T02:22:31;95286.78;;;13.05;100.00
71457;BME280;59263;48.160;11.752;2023-05-10T02:24:58;95301.22;;;13.08;100.00
71457;BME280;59263;48.160;11.752;2023-05-10T02:27:25;95288.28;;;13.00;100.00
71457;BME280;59263;48.160;11.752;2023-05-10T02:29:53;95288.75;;;13.03;100.00
71457;BME280;59263;48.160;11.752;2023-05-10T02:32:18;95293.13;;;13.03;100.00
71457;BME280;59263;48.160;11.752;2023-05-10T02:34:45;95293.47;;;13.00;100.00
71457;BME280;59263;48.160;11.752;2023-05-10T02:37:14;95278.22;;;12.97;100.00
71457;BME280;59263;48.160;11.752;2023-05-10T02:39:41;95289.22;;;13.07;100.00
71457;BME280;59263;48.160;11.752;2023-05-10T02:42:13;95290.25;;;12.98;100.00
71457;BME280;59263;48.160;11.752;2023-05-10T02:44:41;95286.66;;;12.99;100.00
71457;BME280;59263;48.160;11.752;2023-05-10T02:47:08;95288.91;;;13.02;100.00
71457;BME280;59263;48.160;11.752;2023-05-10T02:49:33;95288.13;;;12.93;100.00
71457;BME280;59263;48.160;11.752;2023-05-10T02:52:01;95285.06;;;12.98;100.00
71457;BME280;59263;48.160;11.752;2023-05-10T02:54:33;95292.66;;;12.99;100.00
71457;BME280;59263;48.160;11.752;2023-05-10T02:57:04;95293.81;;;12.97;100.00
71457;BME280;59263;48.160;11.752;2023-05-10T02:59:30;95294.41;;;13.07;100.00
71457;BME280;59263;48.160;11.752;2023-05-10T03:01:58;95283.75;;;12.94;100.00
71457;BME280;59263;48.160;11.752;2023-05-10T03:04:24;95290.88;;;13.00;100.00
71457;BME280;59263;48.160;11.752;2023-05-10T03:06:50;95281.66;;;12.89;100.00
71457;BME280;59263;48.160;11.752;2023-05-10T03:09:15;95303.38;;;12.96;100.00
71457;BME280;59263;48.160;11.752;2023-05-10T03:12:02;95300.50;;;12.91;100.00
71457;BME280;59263;48.160;11.752;2023-05-10T03:17:23;95304.50;;;13.02;100.00
71457;BME280;59263;48.160;11.752;2023-05-10T03:19:54;95296.44;;;12.89;100.00
71457;BME280;59263;48.160;11.752;2023-05-10T03:22:29;95312.63;;;12.99;100.00
71457;BME280;59263;48.160;11.752;2023-05-10T03:24:56;95315.84;;;13.01;100.00
71457;BME280;59263;48.160;11.752;2023-05-10T03:27:25;95303.25;;;12.90;100.00
71457;BME280;59263;48.160;11.752;2023-05-10T03:29:52;95292.25;;;12.88;100.00
71457;BME280;59263;48.160;11.752;2023-05-10T03:32:18;95306.16;;;12.95;100.00
71457;BME280;59263;48.160;11.752;2023-05-10T03:34:44;95305.47;;;13.01;100.00
71457;BME280;59263;48.160;11.752;2023-05-10T03:37:09;95304.38;;;12.95;100.00
71457;BME280;59263;48.160;11.752;2023-05-10T03:39:35;95306.63;;;12.98;100.00
71457;BME280;59263;48.160;11.752;2023-05-10T03:42:00;95317.78;;;13.07;100.00
71457;BME280;59263;48.160;11.752;2023-05-10T03:44:26;95312.28;;;13.02;100.00
71457;BME280;59263;48.160;11.752;2023-05-10T03:46:51;95315.53;;;13.04;100.00
71457;BME280;59263;48.160;11.752;2023-05-10T03:49:16;95320.38;;;13.07;100.00
71457;BME280;59263;48.160;11.752;2023-05-10T03:51:41;95317.88;;;12.91;100.00
71457;BME280;59263;48.160;11.752;2023-05-10T03:54:07;95321.03;;;13.01;100.00
71457;BME280;59263;48.160;11.752;2023-05-10T03:56:32;95319.31;;;12.93;100.00
71457;BME280;59263;48.160;11.752;2023-05-10T03:58:57;95330.81;;;12.99;100.00
71457;BME280;59263;48.160;11.752;2023-05-10T04:01:23;95325.63;;;12.99;100.00
71457;BME280;59263;48.160;11.752;2023-05-10T04:03:48;95323.06;;;12.91;100.00
71457;BME280;59263;48.160;11.752;2023-05-10T04:06:14;95307.50;;;12.82;100.00
71457;BME280;59263;48.160;11.752;2023-05-10T04:08:39;95329.88;;;12.92;100.00
71457;BME280;59263;48.160;11.752;2023-05-10T04:11:08;95322.41;;;12.89;100.00
71457;BME280;59263;48.160;11.752;2023-05-10T04:13:34;95323.06;;;12.91;100.00
71457;BME280;59263;48.160;11.752;2023-05-10T04:16:00;95324.69;;;12.92;100.00
71457;BME280;59263;48.160;11.752;2023-05-10T04:18:25;95335.06;;;12.92;100.00
71457;BME280;59263;48.160;11.752;2023-05-10T04:20:51;95333.59;;;12.89;100.00
71457;BME280;59263;48.160;11.752;2023-05-10T04:23:16;95341.34;;;12.97;100.00
71457;BME280;59263;48.160;11.752;2023-05-10T04:25:42;95327.94;;;12.86;100.00
71457;BME280;59263;48.160;11.752;2023-05-10T04:28:07;95341.72;;;12.94;100.00
71457;BME280;59263;48.160;11.752;2023-05-10T04:30:33;95318.53;;;12.84;100.00
71457;BME280;59263;48.160;11.752;2023-05-10T04:32:58;95319.84;;;12.80;100.00
71457;BME280;59263;48.160;11.752;2023-05-10T04:35:23;95339.94;;;12.95;100.00
71457;BME280;59263;48.160;11.752;2023-05-10T04:37:48;95339.94;;;12.95;100.00
71457;BME280;59263;48.160;11.752;2023-05-10T04:40:14;95333.75;;;12.96;100.00
71457;BME280;59263;48.160;11.752;2023-05-10T04:42:40;95351.25;;;12.94;100.00
71457;BME280;59263;48.160;11.752;2023-05-10T04:45:06;95334.75;;;12.87;100.00
71457;BME280;59263;48.160;11.752;2023-05-10T04:47:32;95350.75;;;13.06;100.00
71457;BME280;59263;48.160;11.752;2023-05-10T04:49:57;95339.06;;;13.02;100.00
71457;BME280;59263;48.160;11.752;2023-05-10T04:52:23;95332.13;;;12.95;100.00
71457;BME280;59263;48.160;11.752;2023-05-10T04:54:48;95341.34;;;12.97;100.00
71457;BME280;59263;48.160;11.752;2023-05-10T04:57:14;95336.34;;;12.96;100.00
71457;BME280;59263;48.160;11.752;2023-05-10T04:59:39;95352.06;;;13.02;100.00
71457;BME280;59263;48.160;11.752;2023-05-10T05:02:05;95341.34;;;12.97;100.00
71457;BME280;59263;48.160;11.752;2023-05-10T05:04:30;95360.53;;;12.96;100.00
71457;BME280;59263;48.160;11.752;2023-05-10T05:06:56;95329.09;;;12.83;100.00
71457;BME280;59263;48.160;11.752;2023-05-10T05:09:21;95353.38;;;12.98;100.00
71457;BME280;59263;48.160;11.752;2023-05-10T05:11:46;95358.91;;;12.95;100.00
71457;BME280;59263;48.160;11.752;2023-05-10T05:14:12;95366.84;;;12.94;100.00
71457;BME280;59263;48.160;11.752;2023-05-10T05:16:37;95344.00;;;12.89;100.00
71457;BME280;59263;48.160;11.752;2023-05-10T05:19:03;95354.53;;;12.96;100.00
71457;BME280;59263;48.160;11.752;2023-05-10T05:21:28;95346.59;;;12.89;100.00
71457;BME280;59263;48.160;11.752;2023-05-10T05:23:54;95356.66;;;12.92;100.00
71457;BME280;59263;48.160;11.752;2023-05-10T05:26:19;95357.81;;;12.81;100.00
71457;BME280;59263;48.160;11.752;2023-05-10T05:28:44;95369.47;;;12.86;100.00
71457;BME280;59263;48.160;11.752;2023-05-10T05:31:10;95377.75;;;12.89;100.00
71457;BME280;59263;48.160;11.752;2023-05-10T05:33:36;95380.19;;;12.82;100.00
71457;BME280;59263;48.160;11.752;2023-05-10T05:36:02;95378.91;;;12.78;100.00
71457;BME280;59263;48.160;11.752;2023-05-10T05:38:28;95383.44;;;12.84;100.00
71457;BME280;59263;48.160;11.752;2023-05-10T05:40:53;95383.00;;;12.73;100.00
71457;BME280;59263;48.160;11.752;2023-05-10T05:43:19;95401.19;;;12.73;100.00
71457;BME280;59263;48.160;11.752;2023-05-10T05:45:44;95401.69;;;12.60;100.00
71457;BME280;59263;48.160;11.752;2023-05-10T05:48:09;95397.50;;;12.51;100.00
71457;BME280;59263;48.160;11.752;2023-05-10T05:50:35;95409.97;;;12.55;100.00
71457;BME280;59263;48.160;11.752;2023-05-10T05:53:00;95411.44;;;12.58;100.00
71457;BME280;59263;48.160;11.752;2023-05-10T05:55:26;95404.00;;;12.39;100.00
71457;BME280;59263;48.160;11.752;2023-05-10T05:57:51;95403.50;;;12.43;100.00
71457;BME280;59263;48.160;11.752;2023-05-10T06:00:16;95422.50;;;12.35;100.00
71457;BME280;59263;48.160;11.752;2023-05-10T06:02:42;95419.56;;;12.22;100.00
71457;BME280;59263;48.160;11.752;2023-05-10T06:05:08;95425.09;;;12.35;100.00
71457;BME280;59263;48.160;11.752;2023-05-10T06:07:33;95416.00;;;12.15;100.00
71457;BME280;59263;48.160;11.752;2023-05-10T06:09:59;95431.91;;;12.20;100.00
71457;BME280;59263;48.160;11.752;2023-05-10T06:12:24;95430.13;;;12.21;100.00
71457;BME280;59263;48.160;11.752;2023-05-10T06:14:49;95434.16;;;12.23;100.00
71457;BME280;59263;48.160;11.752;2023-05-10T06:17:14;95426.06;;;12.26;100.00
71457;BME280;59263;48.160;11.752;2023-05-10T06:19:40;95423.16;;;12.21;100.00
71457;BME280;59263;48.160;11.752;2023-05-10T06:22:05;95436.75;;;12.23;100.00
71457;BME280;59263;48.160;11.752;2023-05-10T06:24:30;95433.03;;;12.18;100.00
71457;BME280;59263;48.160;11.752;2023-05-10T06:26:56;95456.84;;;12.38;100.00
71457;BME280;59263;48.160;11.752;2023-05-10T06:29:21;95452.16;;;12.33;100.00
71457;BME280;59263;48.160;11.752;2023-05-10T06:31:46;95447.47;;;12.37;100.00
71457;BME280;59263;48.160;11.752;2023-05-10T06:34:12;95469.19;;;12.35;100.00
71457;BME280;59263;48.160;11.752;2023-05-10T06:36:38;95446.66;;;12.36;100.00
71457;BME280;59263;48.160;11.752;2023-05-10T06:39:04;95457.81;;;12.45;100.00
71457;BME280;59263;48.160;11.752;2023-05-10T06:41:29;95446.94;;;12.49;100.00
71457;BME280;59263;48.160;11.752;2023-05-10T06:43:55;95441.94;;;12.40;100.00
71457;BME280;59263;48.160;11.752;2023-05-10T06:46:20;95463.97;;;12.60;100.00
71457;BME280;59263;48.160;11.752;2023-05-10T06:48:45;95472.59;;;12.69;100.00
71457;BME280;59263;48.160;11.752;2023-05-10T06:51:11;95460.72;;;12.74;100.00
71457;BME280;59263;48.160;11.752;2023-05-10T06:53:36;95451.34;;;12.57;100.00
71457;BME280;59263;48.160;11.752;2023-05-10T06:56:02;95450.66;;;12.71;100.00
71457;BME280;59263;48.160;11.752;2023-05-10T06:58:28;95468.50;;;12.74;100.00
71457;BME280;59263;48.160;11.752;2023-05-10T07:00:53;95452.59;;;12.77;100.00
71457;BME280;59263;48.160;11.752;2023-05-10T07:03:19;95479.50;;;12.93;100.00
71457;BME280;59263;48.160;11.752;2023-05-10T07:05:44;95467.47;;;13.00;100.00
71457;BME280;59263;48.160;11.752;2023-05-10T07:08:09;95473.13;;;13.12;100.00
71457;BME280;59263;48.160;11.752;2023-05-10T07:10:35;95437.69;;;12.79;100.00
71457;BME280;59263;48.160;11.752;2023-05-10T07:13:01;95462.31;;;12.92;100.00
71457;BME280;59263;48.160;11.752;2023-05-10T07:15:26;95441.34;;;12.93;100.00
71457;BME280;59263;48.160;11.752;2023-05-10T07:17:51;95437.63;;;12.96;100.00
71457;BME280;59263;48.160;11.752;2023-05-10T07:20:17;95480.22;;;13.34;100.00
71457;BME280;59263;48.160;11.752;2023-05-10T07:22:43;95464.16;;;13.39;100.00
71457;BME280;59263;48.160;11.752;2023-05-10T07:25:08;95471.56;;;13.50;100.00
71457;BME280;59263;48.160;11.752;2023-05-10T07:27:33;95401.34;;;13.19;100.00
71457;BME280;59263;48.160;11.752;2023-05-10T07:29:59;95476.00;;;13.72;100.00
71457;BME280;59263;48.160;11.752;2023-05-10T07:32:25;95465.38;;;13.82;100.00
71457;BME280;59263;48.160;11.752;2023-05-10T07:34:50;95473.59;;;13.94;100.00
71457;BME280;59263;48.160;11.752;2023-05-10T07:37:16;95478.25;;;13.75;100.00
71457;BME280;59263;48.160;11.752;2023-05-10T07:39:41;95474.72;;;13.68;100.00
71457;BME280;59263;48.160;11.752;2023-05-10T07:42:06;95487.41;;;13.63;100.00
71457;BME280;59263;48.160;11.752;2023-05-10T07:44:32;95482.88;;;13.65;100.00
71457;BME280;59263;48.160;11.752;2023-05-10T07:46:57;95470.25;;;13.54;100.00
71457;BME280;59263;48.160;11.752;2023-05-10T07:49:22;95472.13;;;13.68;100.00
71457;BME280;59263;48.160;11.752;2023-05-10T07:51:50;95484.56;;;13.81;100.00
71457;BME280;59263;48.160;11.752;2023-05-10T07:54:16;95440.25;;;13.43;100.00
71457;BME280;59263;48.160;11.752;2023-05-10T07:56:42;95490.84;;;13.95;100.00
71457;BME280;59263;48.160;11.752;2023-05-10T07:59:16;95484.00;;;13.94;100.00
71457;BME280;59263;48.160;11.752;2023-05-10T08:01:41;95483.09;;;14.10;100.00
71457;BME280;59263;48.160;11.752;2023-05-10T08:04:07;95471.16;;;14.15;100.00
71457;BME280;59263;48.160;11.752;2023-05-10T08:06:32;95458.88;;;14.09;100.00
71457;BME280;59263;48.160;11.752;2023-05-10T08:08:57;95483.78;;;14.26;100.00
71457;BME280;59263;48.160;11.752;2023-05-10T08:11:23;95468.81;;;14.28;100.00
71457;BME280;59263;48.160;11.752;2023-05-10T08:13:50;95431.16;;;13.93;100.00
71457;BME280;59263;48.160;11.752;2023-05-10T08:16:19;95486.88;;;14.45;100.00
71457;BME280;59263;48.160;11.752;2023-05-10T08:18:46;95480.34;;;14.49;100.00
71457;BME280;59263;48.160;11.752;2023-05-10T08:21:12;95476.72;;;14.58;100.00
71457;BME280;59263;48.160;11.752;2023-05-10T08:23:37;95482.28;;;14.55;100.00
71457;BME280;59263;48.160;11.752;2023-05-10T08:26:03;95472.00;;;14.39;100.00
71457;BME280;59263;48.160;11.752;2023-05-10T08:28:28;95486.09;;;14.44;100.00
71457;BME280;59263;48.160;11.752;2023-05-10T08:30:53;95494.19;;;14.49;100.00
71457;BME280;59263;48.160;11.752;2023-05-10T08:33:19;95476.63;;;14.51;100.00
71457;BME280;59263;48.160;11.752;2023-05-10T08:35:45;95485.72;;;14.70;100.00
71457;BME280;59263;48.160;11.752;2023-05-10T08:38:10;95475.66;;;14.67;100.00
71457;BME280;59263;48.160;11.752;2023-05-10T08:40:41;95452.97;;;14.76;100.00
71457;BME280;59263;48.160;11.752;2023-05-10T08:43:09;95475.00;;;15.18;100.00
71457;BME280;59263;48.160;11.752;2023-05-10T08:45:40;95458.81;;;15.22;100.00
71457;BME280;59263;48.160;11.752;2023-05-10T08:48:07;95458.91;;;15.44;100.00
71457;BME280;59263;48.160;11.752;2023-05-10T08:50:40;95439.03;;;15.43;100.00
71457;BME280;59263;48.160;11.752;2023-05-10T08:53:09;95463.38;;;15.80;100.00
71457;BME280;59263;48.160;11.752;2023-05-10T08:55:37;95442.63;;;15.93;100.00
71457;BME280;59263;48.160;11.752;2023-05-10T08:58:07;95440.16;;;15.70;100.00
71457;BME280;59263;48.160;11.752;2023-05-10T09:00:33;95416.53;;;15.42;100.00
71457;BME280;59263;48.160;11.752;2023-05-10T09:02:59;95471.72;;;15.60;100.00
71457;BME280;59263;48.160;11.752;2023-05-10T09:05:25;95463.19;;;15.52;100.00
71457;BME280;59263;48.160;11.752;2023-05-10T09:11:25;95469.22;;;15.52;100.00
71457;BME280;59263;48.160;11.752;2023-05-10T09:17:20;95470.56;;;15.48;100.00
71457;BME280;59263;48.160;11.752;2023-05-10T09:19:46;95427.19;;;15.25;100.00
71457;BME280;59263;48.160;11.752;2023-05-10T09:22:12;95408.16;;;15.10;100.00
71457;BME280;59263;48.160;11.752;2023-05-10T09:24:39;95420.34;;;15.24;100.00
71457;BME280;59263;48.160;11.752;2023-05-10T09:27:10;95463.66;;;15.55;100.00
71457;BME280;59263;48.160;11.752;2023-05-10T09:29:42;95468.75;;;15.63;100.00
71457;BME280;59263;48.160;11.752;2023-05-10T09:32:08;95477.28;;;15.72;100.00
71457;BME280;59263;48.160;11.752;2023-05-10T09:34:33;95441.53;;;15.66;100.00
71457;BME280;59263;48.160;11.752;2023-05-10T09:37:01;95441.84;;;15.78;100.00
71457;BME280;59263;48.160;11.752;2023-05-10T09:39:35;95444.78;;;15.89;100.00
71457;BME280;59263;48.160;11.752;2023-05-10T09:42:06;95445.72;;;16.03;100.00
71457;BME280;59263;48.160;11.752;2023-05-10T09:44:32;95458.66;;;16.11;100.00
71457;BME280;59263;48.160;11.752;2023-05-10T09:46:58;95441.63;;;15.94;100.00
71457;BME280;59263;48.160;11.752;2023-05-10T09:49:24;95459.78;;;16.02;100.00
71457;BME280;59263;48.160;11.752;2023-05-10T09:52:06;95465.66;;;15.89;100.00
71457;BME280;59263;48.160;11.752;2023-05-10T09:54:32;95480.75;;;15.72;100.00
71457;BME280;59263;48.160;11.752;2023-05-10T09:56:58;95489.00;;;15.61;100.00
71457;BME280;59263;48.160;11.752;2023-05-10T09:59:28;95481.13;;;15.40;100.00
71457;BME280;59263;48.160;11.752;2023-05-10T10:01:58;95498.56;;;15.24;100.00
71457;BME280;59263;48.160;11.752;2023-05-10T10:04:25;95486.47;;;14.94;100.00
71457;BME280;59263;48.160;11.752;2023-05-10T10:07:03;95502.31;;;15.07;100.00
71457;BME280;59263;48.160;11.752;2023-05-10T10:09:30;95505.72;;;14.93;100.00
71457;BME280;59263;48.160;11.752;2023-05-10T10:11:55;95490.31;;;14.68;100.00
71457;BME280;59263;48.160;11.752;2023-05-10T10:14:22;95504.31;;;14.67;100.00
71457;BME280;59263;48.160;11.752;2023-05-10T10:16:49;95505.66;;;14.63;100.00
71457;BME280;59263;48.160;11.752;2023-05-10T10:19:15;95483.28;;;14.46;100.00
71457;BME280;59263;48.160;11.752;2023-05-10T10:21:40;95496.22;;;14.39;100.00
71457;BME280;59263;48.160;11.752;2023-05-10T10:24:06;95519.00;;;14.60;100.00
71457;BME280;59263;48.160;11.752;2023-05-10T10:26:33;95490.66;;;14.65;100.00
71457;BME280;59263;48.160;11.752;2023-05-10T10:31:47;95481.69;;;14.83;100.00
71457;BME280;59263;48.160;11.752;2023-05-10T10:36:50;95475.44;;;15.07;100.00
71457;BME280;59263;48.160;11.752;2023-05-10T10:39:15;95475.09;;;15.10;100.00
71457;BME280;59263;48.160;11.752;2023-05-10T10:41:55;95442.28;;;15.15;100.00
71457;BME280;59263;48.160;11.752;2023-05-10T10:49:51;95458.22;;;15.71;100.00
71457;BME280;59263;48.160;11.752;2023-05-10T10:52:33;95460.38;;;15.83;100.00
71457;BME280;59263;48.160;11.752;2023-05-10T10:55:01;95447.16;;;15.84;100.00
71457;BME280;59263;48.160;11.752;2023-05-10T10:57:27;95447.47;;;15.96;100.00
71457;BME280;59263;48.160;11.752;2023-05-10T11:02:47;95453.28;;;15.98;100.00
71457;BME280;59263;48.160;11.752;2023-05-10T11:05:33;95435.66;;;16.00;100.00
71457;BME280;59263;48.160;11.752;2023-05-10T11:08:09;95453.38;;;16.05;100.00
71457;BME280;59263;48.160;11.752;2023-05-10T11:10:35;95449.94;;;15.83;100.00
71457;BME280;59263;48.160;11.752;2023-05-10T11:13:04;95451.56;;;15.84;100.00
71457;BME280;59263;48.160;11.752;2023-05-10T11:15:35;95435.41;;;15.73;100.00
71457;BME280;59263;48.160;11.752;2023-05-10T11:18:20;95453.78;;;15.65;100.00
71457;BME280;59263;48.160;11.752;2023-05-10T11:21:00;95449.03;;;15.76;100.00
71457;BME280;59263;48.160;11.752;2023-05-10T11:23:33;95459.63;;;15.89;100.00
71457;BME280;59263;48.160;11.752;2023-05-10T11:26:12;95424.78;;;15.60;100.00
71457;BME280;59263;48.160;11.752;2023-05-10T11:28:42;95461.47;;;15.73;100.00
71457;BME280;59263;48.160;11.752;2023-05-10T11:31:08;95465.81;;;15.66;100.00
71457;BME280;59263;48.160;11.752;2023-05-10T11:33:47;95466.34;;;15.62;100.00
71457;BME280;59263;48.160;11.752;2023-05-10T11:36:20;95458.78;;;15.52;100.00
71457;BME280;59263;48.160;11.752;2023-05-10T11:38:47;95461.50;;;15.44;100.00
71457;BME280;59263;48.160;11.752;2023-05-10T11:41:13;95455.03;;;15.40;100.00
71457;BME280;59263;48.160;11.752;2023-05-10T11:43:39;95468.69;;;15.42;100.00
71457;BME280;59263;48.160;11.752;2023-05-10T11:46:10;95467.06;;;15.41;100.00
71457;BME280;59263;48.160;11.752;2023-05-10T11:48:38;95473.81;;;15.50;100.00
71457;BME280;59263;48.160;11.752;2023-05-10T11:51:03;95465.19;;;15.35;100.00
71457;BME280;59263;48.160;11.752;2023-05-10T11:53:30;95467.72;;;15.28;100.00
71457;BME280;59263;48.160;11.752;2023-05-10T11:56:02;95474.81;;;15.19;100.00
71457;BME280;59263;48.160;11.752;2023-05-10T11:58:28;95480.56;;;15.00;100.00
71457;BME280;59263;48.160;11.752;2023-05-10T12:00:53;95490.06;;;14.93;100.00
71457;BME280;59263;48.160;11.752;2023-05-10T12:03:18;95492.41;;;14.88;100.00
71457;BME280;59263;48.160;11.752;2023-05-10T12:05:44;95506.06;;;14.90;100.00
71457;BME280;59263;48.160;11.752;2023-05-10T12:08:14;95483.47;;;14.67;100.00
71457;BME280;59263;48.160;11.752;2023-05-10T12:10:39;95520.78;;;14.83;100.00
71457;BME280;59263;48.160;11.752;2023-05-10T12:13:05;95524.59;;;14.72;100.00
71457;BME280;59263;48.160;11.752;2023-05-10T12:15:32;95550.22;;;14.68;100.00
71457;BME280;59263;48.160;11.752;2023-05-10T12:17:57;95480.44;;;13.95;100.00
71457;BME280;59263;48.160;11.752;2023-05-10T12:20:28;95500.63;;;13.85;100.00
71457;BME280;59263;48.160;11.752;2023-05-10T12:22:56;95557.75;;;14.01;100.00
71457;BME280;59263;48.160;11.752;2023-05-10T12:25:23;95563.66;;;13.95;100.00
71457;BME280;59263;48.160;11.752;2023-05-10T12:27:54;95548.44;;;13.75;100.00
71457;BME280;59263;48.160;11.752;2023-05-10T12:30:24;95561.16;;;13.70;100.00
71457;BME280;59263;48.160;11.752;2023-05-10T12:32:50;95552.47;;;13.47;100.00
71457;BME280;59263;48.160;11.752;2023-05-10T12:35:15;95563.69;;;13.47;100.00
71457;BME280;59263;48.160;11.752;2023-05-10T12:37:42;95575.91;;;13.39;100.00
71457;BME280;59263;48.160;11.752;2023-05-10T12:40:09;95568.28;;;13.29;100.00
71457;BME280;59263;48.160;11.752;2023-05-10T12:42:36;95571.66;;;13.21;100.00
71457;BME280;59263;48.160;11.752;2023-05-10T12:45:04;95575.41;;;13.19;100.00
71457;BME280;59263;48.160;11.752;2023-05-10T12:47:31;95585.47;;;13.22;100.00
71457;BME280;59263;48.160;11.752;2023-05-10T12:49:56;95573.00;;;13.09;100.00
71457;BME280;59263;48.160;11.752;2023-05-10T12:52:22;95584.31;;;13.16;100.00
71457;BME280;59263;48.160;11.752;2023-05-10T12:54:47;95578.81;;;13.11;100.00
71457;BME280;59263;48.160;11.752;2023-05-10T12:57:14;95585.97;;;13.17;100.00
71457;BME280;59263;48.160;11.752;2023-05-10T12:59:39;95603.16;;;13.18;100.00
71457;BME280;59263;48.160;11.752;2023-05-10T13:02:05;95589.38;;;13.10;100.00
71457;BME280;59263;48.160;11.752;2023-05-10T13:04:31;95602.19;;;13.19;100.00
71457;BME280;59263;48.160;11.752;2023-05-10T13:06:56;95603.50;;;13.15;100.00
71457;BME280;59263;48.160;11.752;2023-05-10T13:09:24;95580.13;;;13.07;100.00
71457;BME280;59263;48.160;11.752;2023-05-10T13:11:50;95592.13;;;13.08;100.00
71457;BME280;59263;48.160;11.752;2023-05-10T13:14:16;95600.28;;;13.13;100.00
71457;BME280;59263;48.160;11.752;2023-05-10T13:16:41;95569.75;;;12.99;100.00
71457;BME280;59263;48.160;11.752;2023-05-10T13:19:06;95589.88;;;13.13;100.00
71457;BME280;59263;48.160;11.752;2023-05-10T13:21:32;95581.25;;;13.04;100.00
71457;BME280;59263;48.160;11.752;2023-05-10T13:23:57;95588.72;;;13.16;100.00
71457;BME280;59263;48.160;11.752;2023-05-10T13:26:23;95562.94;;;12.90;100.00
71457;BME280;59263;48.160;11.752;2023-05-10T13:28:48;95571.69;;;13.05;100.00
71457;BME280;59263;48.160;11.752;2023-05-10T13:31:14;95590.84;;;13.20;100.00
71457;BME280;59263;48.160;11.752;2023-05-10T13:33:40;95577.84;;;13.12;100.00
71457;BME280;59263;48.160;11.752;2023-05-10T13:36:06;95571.38;;;13.24;100.00
71457;BME280;59263;48.160;11.752;2023-05-10T13:38:31;95585.66;;;13.28;100.00
71457;BME280;59263;48.160;11.752;2023-05-10T13:40:56;95588.25;;;13.28;100.00
71457;BME280;59263;48.160;11.752;2023-05-10T13:43:24;95590.84;;;13.37;100.00
71457;BME280;59263;48.160;11.752;2023-05-10T13:45:49;95502.72;;;12.86;100.00
71457;BME280;59263;48.160;11.752;2023-05-10T13:48:14;95566.66;;;13.28;100.00
71457;BME280;59263;48.160;11.752;2023-05-10T13:50:40;95573.00;;;13.25;100.00
71457;BME280;59263;48.160;11.752;2023-05-10T13:53:06;95584.66;;;13.38;100.00
71457;BME280;59263;48.160;11.752;2023-05-10T13:55:31;95553.50;;;13.13;100.00
71457;BME280;59263;48.160;11.752;2023-05-10T13:57:56;95545.69;;;13.05;100.00
71457;BME280;59263;48.160;11.752;2023-05-10T14:00:23;95586.13;;;13.32;100.00
71457;BME280;59263;48.160;11.752;2023-05-10T14:02:48;95583.53;;;13.32;100.00
71457;BME280;59263;48.160;11.752;2023-05-10T14:05:14;95582.72;;;13.31;100.00
71457;BME280;59263;48.160;11.752;2023-05-10T14:07:39;95540.03;;;13.10;100.00
71457;BME280;59263;48.160;11.752;2023-05-10T14:10:05;95577.84;;;13.37;100.00
71457;BME280;59263;48.160;11.752;2023-05-10T14:12:30;95588.53;;;13.42;100.00
71457;BME280;59263;48.160;11.752;2023-05-10T14:14:56;95575.25;;;13.28;100.00
71457;BME280;59263;48.160;11.752;2023-05-10T14:17:21;95579.78;;;13.35;100.00